Time;durP1;ratioP1;P1;durP2;ratioP2;P2;SDS_P1;SDS_P2;PMS_P1;PMS_P2;Temp;Humidity;BMP_temperature;BMP_pressure;BME280_temperature;BME280_humidity;BME280_pressure;Samples;Min_cycle;Max_cycle;Signal;HPM_P1;HPM_P2
2023/06/06 00:00:15;;;;;;;319.57;308.47;;;13.30;99.90;;;;;;6011429;23;20441;-68
2023/06/06 00:02:45;;;;;;;307.43;296.63;;;13.20;99.90;;;;;;6010432;23;20909;-68
2023/06/06 00:05:13;;;;;;;381.97;368.10;;;13.10;99.90;;;;;;6011847;23;20710;-68
2023/06/06 00:07:41;;;;;;;415.43;399.93;;;13.00;99.90;;;;;;6010887;23;20417;-68
2023/06/06 00:10:09;;;;;;;349.17;336.70;;;12.90;99.90;;;;;;6011278;23;20478;-68
2023/06/06 00:12:37;;;;;;;394.17;379.37;;;12.80;99.90;;;;;;6010478;23;20974;-69
2023/06/06 00:15:05;;;;;;;470.20;452.10;;;12.80;99.90;;;;;;6011103;23;20477;-68
2023/06/06 00:17:32;;;;;;;496.50;476.90;;;12.70;99.90;;;;;;6010875;23;20528;-68
2023/06/06 00:20:01;;;;;;;618.73;591.13;;;12.70;99.90;;;;;;6011101;23;20421;-69
2023/06/06 00:22:28;;;;;;;661.53;631.13;;;12.70;99.90;;;;;;6010699;23;20804;-68
2023/06/06 00:24:55;;;;;;;672.93;642.43;;;12.70;99.90;;;;;;6011110;23;20417;-68
2023/06/06 00:27:22;;;;;;;720.70;686.43;;;12.60;99.90;;;;;;6010618;23;20424;-68
2023/06/06 00:29:49;;;;;;;723.60;689.20;;;12.70;99.90;;;;;;6011081;23;20763;-68
2023/06/06 00:32:16;;;;;;;642.50;614.13;;;12.60;99.90;;;;;;6010327;23;20460;-68
2023/06/06 00:34:43;;;;;;;672.43;642.43;;;12.50;99.90;;;;;;6011019;23;20444;-68
2023/06/06 00:37:11;;;;;;;733.53;699.07;;;12.50;99.90;;;;;;6010327;23;20463;-68
2023/06/06 00:39:37;;;;;;;790.87;751.07;;;12.40;99.90;;;;;;6011039;23;20430;-68
2023/06/06 00:42:05;;;;;;;789.57;750.87;;;12.40;99.90;;;;;;6010218;23;20429;-68
2023/06/06 00:44:31;;;;;;;799.07;758.30;;;12.40;99.90;;;;;;6011018;23;20425;-68
2023/06/06 00:46:58;;;;;;;748.07;713.03;;;12.40;99.90;;;;;;6010721;23;20417;-68
2023/06/06 00:49:26;;;;;;;715.40;683.83;;;12.30;99.90;;;;;;6010599;23;20421;-68
2023/06/06 00:51:53;;;;;;;790.13;751.27;;;12.20;99.90;;;;;;6010910;23;20722;-68
2023/06/06 00:54:22;;;;;;;863.07;816.60;;;12.20;99.90;;;;;;6010811;23;20420;-68
2023/06/06 00:56:51;;;;;;;900.83;847.97;;;12.20;99.90;;;;;;6010613;23;20727;-68
2023/06/06 00:59:20;;;;;;;921.80;863.63;;;12.20;99.90;;;;;;6010557;23;20456;-68
2023/06/06 01:01:48;;;;;;;908.93;855.37;;;12.30;99.90;;;;;;6010860;23;20422;-68
2023/06/06 01:04:17;;;;;;;898.87;846.97;;;12.20;99.90;;;;;;6010418;23;20421;-68
2023/06/06 01:06:44;;;;;;;884.80;835.53;;;12.20;99.90;;;;;;6010749;23;20520;-68
2023/06/06 01:09:12;;;;;;;793.27;753.00;;;12.20;99.90;;;;;;6010739;23;20444;-68
2023/06/06 01:11:50;;;;;;;756.63;718.83;;;12.20;99.90;;;;;;6010203;23;20968;-68
2023/06/06 01:14:24;;;;;;;690.37;659.03;;;12.40;99.90;;;;;;6010109;23;20862;-68
2023/06/06 01:16:52;;;;;;;700.60;668.30;;;12.60;99.90;;;;;;6010421;23;20405;-68
2023/06/06 01:19:21;;;;;;;652.47;624.27;;;12.70;99.90;;;;;;6010401;23;20421;-68
2023/06/06 01:21:51;;;;;;;650.33;622.43;;;12.70;99.90;;;;;;6010579;23;20427;-68
2023/06/06 01:24:19;;;;;;;579.83;556.00;;;12.80;99.90;;;;;;6010300;23;20405;-68
2023/06/06 01:26:46;;;;;;;583.27;560.27;;;12.80;99.90;;;;;;6010162;23;20428;-68
2023/06/06 01:29:13;;;;;;;640.27;613.90;;;12.70;99.90;;;;;;6010331;23;20422;-68
2023/06/06 01:31:43;;;;;;;666.33;638.90;;;12.60;99.90;;;;;;6010577;23;20727;-68
2023/06/06 01:34:21;;;;;;;729.63;697.37;;;12.50;99.90;;;;;;6010463;23;20406;-68
2023/06/06 01:36:56;;;;;;;791.77;753.80;;;12.40;99.90;;;;;;6010474;23;20416;-68
2023/06/06 01:39:24;;;;;;;821.67;780.60;;;12.20;99.90;;;;;;6010409;23;20396;-69
2023/06/06 01:41:55;;;;;;;883.13;834.60;;;12.10;99.90;;;;;;6010014;23;20435;-68
2023/06/06 01:44:23;;;;;;;900.57;848.97;;;12.00;99.90;;;;;;6008578;23;20413;-68
2023/06/06 01:46:50;;;;;;;896.90;846.43;;;11.90;99.90;;;;;;6009923;23;20429;-68
2023/06/06 01:49:18;;;;;;;912.60;858.83;;;11.80;99.90;;;;;;6010561;23;20424;-69
2023/06/06 01:51:44;;;;;;;931.33;872.90;;;11.80;99.90;;;;;;6010572;23;20421;-68
2023/06/06 01:54:12;;;;;;;939.90;878.80;;;11.70;99.90;;;;;;6010238;23;20746;-68
2023/06/06 01:56:39;;;;;;;934.83;875.80;;;11.60;99.90;;;;;;6010362;23;20421;-68
2023/06/06 01:59:06;;;;;;;938.53;877.73;;;11.60;99.90;;;;;;6010234;23;20448;-68
2023/06/06 02:01:33;;;;;;;935.27;874.60;;;11.60;99.90;;;;;;6010279;23;20427;-68
2023/06/06 02:03:59;;;;;;;938.97;874.70;;;11.60;99.90;;;;;;6010216;23;20420;-69
2023/06/06 02:06:26;;;;;;;927.97;868.80;;;11.70;99.90;;;;;;6010495;23;20420;-69
2023/06/06 02:08:53;;;;;;;920.67;862.60;;;11.60;99.90;;;;;;6009973;23;20424;-69
2023/06/06 02:11:23;;;;;;;920.57;858.67;;;11.60;99.90;;;;;;6010311;23;20421;-68
2023/06/06 02:13:50;;;;;;;930.83;865.53;;;11.50;99.90;;;;;;6009676;23;20419;-69
2023/06/06 02:16:17;;;;;;;926.40;858.30;;;11.40;99.90;;;;;;6009784;23;20451;-69
2023/06/06 02:18:45;;;;;;;893.00;823.33;;;11.40;99.90;;;;;;6010130;23;20440;-68
2023/06/06 02:21:12;;;;;;;888.67;822.00;;;11.40;99.90;;;;;;6009982;23;20449;-69
2023/06/06 02:23:40;;;;;;;899.97;829.87;;;11.40;99.90;;;;;;6010646;23;20420;-69
2023/06/06 02:26:07;;;;;;;889.80;818.03;;;11.30;99.90;;;;;;6011825;23;20424;-69
2023/06/06 02:28:35;;;;;;;877.20;803.70;;;11.30;99.90;;;;;;6011528;23;20427;-69
2023/06/06 02:31:03;;;;;;;879.97;803.13;;;11.30;99.90;;;;;;6012258;23;20730;-69
2023/06/06 02:33:30;;;;;;;876.80;800.80;;;11.40;99.90;;;;;;6011534;23;20453;-69
2023/06/06 02:35:57;;;;;;;892.13;818.10;;;11.40;99.90;;;;;;6012261;23;20491;-69
2023/06/06 02:38:23;;;;;;;898.17;830.67;;;11.30;99.90;;;;;;6011655;23;20446;-69
2023/06/06 02:40:50;;;;;;;909.97;840.73;;;11.10;99.90;;;;;;6012105;23;20898;-69
2023/06/06 02:43:17;;;;;;;889.77;823.33;;;11.10;99.90;;;;;;6011364;23;20435;-69
2023/06/06 02:45:46;;;;;;;888.70;819.63;;;11.20;99.90;;;;;;6012129;23;20420;-69
2023/06/06 02:48:13;;;;;;;882.00;816.20;;;11.30;99.90;;;;;;6011841;23;20804;-69
2023/06/06 02:50:40;;;;;;;895.33;829.37;;;11.40;99.90;;;;;;6011709;23;20427;-69
2023/06/06 02:53:07;;;;;;;896.50;833.60;;;11.40;99.90;;;;;;6011559;23;20428;-69
2023/06/06 02:55:34;;;;;;;890.90;829.27;;;11.30;99.90;;;;;;6011726;23;20427;-69
2023/06/06 02:58:01;;;;;;;884.53;825.10;;;11.20;99.90;;;;;;6011322;23;20440;-69
2023/06/06 03:00:28;;;;;;;884.37;822.47;;;11.10;99.90;;;;;;6011517;23;20424;-69
2023/06/06 03:02:56;;;;;;;866.37;809.90;;;11.10;99.90;;;;;;6011209;23;20934;-69
2023/06/06 03:05:28;;;;;;;827.93;777.40;;;11.20;99.90;;;;;;6011612;23;20980;-69
2023/06/06 03:07:56;;;;;;;841.03;789.00;;;11.30;99.90;;;;;;6011347;23;20460;-69
2023/06/06 03:10:23;;;;;;;835.87;784.57;;;11.40;99.90;;;;;;6011788;23;20428;-69
2023/06/06 03:12:49;;;;;;;855.73;801.67;;;11.50;99.90;;;;;;6011121;23;20421;-69
2023/06/06 03:15:16;;;;;;;870.83;815.20;;;11.40;99.90;;;;;;6011536;23;20917;-69
2023/06/06 03:17:43;;;;;;;869.63;811.33;;;11.40;99.90;;;;;;6011097;23;20966;-69
2023/06/06 03:20:13;;;;;;;859.23;803.53;;;11.30;99.90;;;;;;6011740;23;20748;-69
2023/06/06 03:22:40;;;;;;;875.83;817.17;;;11.40;99.90;;;;;;6010996;23;20421;-69
2023/06/06 03:25:07;;;;;;;875.73;815.00;;;11.30;99.90;;;;;;6011647;23;20431;-69
2023/06/06 03:27:34;;;;;;;876.20;815.03;;;11.30;99.90;;;;;;6011100;23;20421;-69
2023/06/06 03:30:06;;;;;;;849.73;791.13;;;11.40;99.90;;;;;;6011336;23;20421;-69
2023/06/06 03:32:33;;;;;;;862.17;801.50;;;11.40;99.90;;;;;;6011110;23;20431;-69
2023/06/06 03:35:00;;;;;;;871.20;806.03;;;11.30;99.90;;;;;;6011368;23;20424;-69
2023/06/06 03:37:28;;;;;;;875.30;811.53;;;11.30;99.90;;;;;;6011309;23;20420;-69
2023/06/06 03:39:54;;;;;;;880.87;817.60;;;11.20;99.90;;;;;;6011456;23;20451;-69
2023/06/06 03:42:21;;;;;;;872.87;810.50;;;11.20;99.90;;;;;;6010794;23;20436;-69
2023/06/06 03:44:48;;;;;;;882.67;816.70;;;11.10;99.90;;;;;;6011510;23;20499;-69
2023/06/06 03:47:15;;;;;;;877.97;813.63;;;11.10;99.90;;;;;;6011167;23;20420;-69
2023/06/06 03:49:41;;;;;;;870.30;806.30;;;11.10;99.90;;;;;;6011467;23;20485;-70
2023/06/06 03:52:10;;;;;;;878.60;811.67;;;11.10;99.90;;;;;;6010958;23;20421;-69
2023/06/06 03:54:38;;;;;;;878.17;811.10;;;11.10;99.90;;;;;;6011019;23;20421;-69
2023/06/06 03:57:06;;;;;;;880.00;814.87;;;11.00;99.90;;;;;;6011154;23;20420;-69
2023/06/06 03:59:33;;;;;;;890.40;821.93;;;11.00;99.90;;;;;;6010873;23;20454;-69
2023/06/06 04:02:00;;;;;;;885.07;816.07;;;11.00;99.90;;;;;;6010899;23;20425;-69
2023/06/06 04:04:27;;;;;;;872.17;805.80;;;11.00;99.90;;;;;;6011413;23;20447;-69
2023/06/06 04:06:53;;;;;;;877.57;813.30;;;11.00;99.90;;;;;;6011018;23;20732;-69
2023/06/06 04:09:20;;;;;;;882.10;814.80;;;11.00;99.90;;;;;;6011238;23;20416;-69
2023/06/06 04:11:48;;;;;;;877.23;810.13;;;11.00;99.90;;;;;;6011275;23;20750;-69
2023/06/06 04:14:15;;;;;;;871.80;802.70;;;11.10;99.90;;;;;;6010739;23;20431;-70
2023/06/06 04:16:42;;;;;;;886.27;817.90;;;11.10;99.90;;;;;;6011077;23;20431;-69
2023/06/06 04:19:10;;;;;;;878.20;810.30;;;11.10;99.90;;;;;;6010617;23;20447;-69
2023/06/06 04:21:37;;;;;;;874.37;805.60;;;11.20;99.90;;;;;;6010858;23;20417;-69
2023/06/06 04:24:04;;;;;;;863.63;796.57;;;11.20;99.90;;;;;;6010787;23;20749;-69
2023/06/06 04:26:32;;;;;;;866.10;801.73;;;11.30;99.90;;;;;;6010966;23;20426;-69
2023/06/06 04:29:00;;;;;;;865.47;799.57;;;11.30;99.90;;;;;;6010801;23;20476;-69
2023/06/06 04:31:29;;;;;;;867.53;799.93;;;11.40;99.90;;;;;;6011131;23;20421;-69
2023/06/06 04:33:56;;;;;;;879.27;811.47;;;11.50;99.90;;;;;;6010684;23;20421;-70
2023/06/06 04:36:24;;;;;;;870.93;801.97;;;11.60;99.90;;;;;;6010967;23;20421;-69
2023/06/06 04:38:51;;;;;;;887.23;813.73;;;11.60;99.90;;;;;;6010610;23;20442;-69
2023/06/06 04:41:20;;;;;;;876.83;804.70;;;11.60;99.90;;;;;;6010740;23;20428;-69
2023/06/06 04:43:49;;;;;;;875.90;804.63;;;11.70;99.90;;;;;;6010697;23;20487;-69
2023/06/06 04:46:21;;;;;;;884.97;811.90;;;11.80;99.90;;;;;;6010675;23;20443;-69
2023/06/06 04:48:52;;;;;;;860.57;793.20;;;11.90;99.90;;;;;;6010806;23;20413;-69
2023/06/06 04:51:20;;;;;;;843.17;782.40;;;12.00;99.90;;;;;;6010828;23;20416;-72
2023/06/06 04:53:50;;;;;;;839.00;783.83;;;12.20;99.90;;;;;;6010435;23;20504;-72
2023/06/06 04:56:17;;;;;;;812.40;762.63;;;12.30;99.90;;;;;;6010933;23;20421;-72
2023/06/06 04:58:44;;;;;;;813.60;765.93;;;12.40;99.90;;;;;;6010559;23;20445;-72
2023/06/06 05:01:13;;;;;;;774.97;731.07;;;12.60;99.90;;;;;;6010618;23;20420;-72
2023/06/06 05:03:41;;;;;;;783.87;739.37;;;12.70;99.90;;;;;;6010370;23;20764;-72
2023/06/06 05:06:08;;;;;;;841.80;789.17;;;12.80;99.90;;;;;;6010503;23;20763;-70
2023/06/06 05:08:39;;;;;;;833.60;783.40;;;12.90;99.90;;;;;;6010495;23;20420;-70
2023/06/06 05:11:07;;;;;;;809.67;762.47;;;13.00;99.90;;;;;;6010883;23;20406;-70
2023/06/06 05:13:34;;;;;;;800.17;755.07;;;13.00;99.90;;;;;;6010384;23;20470;-70
2023/06/06 05:16:01;;;;;;;787.20;745.30;;;13.20;99.90;;;;;;6010425;23;20422;-70
2023/06/06 05:18:29;;;;;;;708.77;674.00;;;13.40;99.90;;;;;;6010478;23;20443;-69
2023/06/06 05:21:00;;;;;;;583.20;557.00;;;13.60;99.90;;;;;;6010802;23;20426;-69
2023/06/06 05:23:28;;;;;;;438.17;419.47;;;13.90;99.90;;;;;;6009937;23;20405;-69
2023/06/06 05:25:56;;;;;;;201.50;193.43;;;14.20;99.90;;;;;;6010497;23;20506;-69
2023/06/06 05:28:23;;;;;;;48.67;45.27;;;14.60;99.90;;;;;;6010266;23;20760;-69
2023/06/06 05:30:51;;;;;;;40.73;38.03;;;14.80;99.90;;;;;;6010699;23;20418;-69
2023/06/06 05:33:18;;;;;;;27.47;25.33;;;15.00;99.90;;;;;;6009741;23;20447;-69
2023/06/06 05:35:47;;;;;;;17.90;14.70;;;15.20;99.90;;;;;;6010589;23;20418;-69
2023/06/06 05:38:16;;;;;;;16.63;10.03;;;15.40;99.90;;;;;;6010275;23;20479;-69
2023/06/06 05:40:43;;;;;;;14.23;9.77;;;15.60;99.90;;;;;;6010569;23;20478;-69
2023/06/06 05:43:09;;;;;;;16.30;10.23;;;15.90;99.90;;;;;;6009777;23;20433;-69
2023/06/06 05:45:36;;;;;;;16.37;9.40;;;16.20;99.90;;;;;;6010631;23;20418;-69
2023/06/06 05:48:04;;;;;;;14.87;9.10;;;16.20;99.90;;;;;;6009964;23;20915;-69
2023/06/06 05:50:31;;;;;;;15.30;8.90;;;16.30;99.90;;;;;;6010170;23;20414;-69
2023/06/06 05:52:58;;;;;;;13.87;8.50;;;16.80;99.90;;;;;;6009895;23;20904;-69
2023/06/06 05:55:31;;;;;;;13.50;7.73;;;16.90;99.90;;;;;;6010585;23;20498;-69
2023/06/06 05:57:58;;;;;;;12.83;8.20;;;16.70;99.90;;;;;;6011744;23;20418;-69
2023/06/06 06:00:25;;;;;;;14.40;9.50;;;16.80;99.90;;;;;;6012246;23;20727;-69
2023/06/06 06:02:55;;;;;;;14.80;7.67;;;16.90;99.90;;;;;;6011879;23;20489;-66
2023/06/06 06:05:22;;;;;;;17.00;9.07;;;17.00;99.90;;;;;;6009990;23;20419;-67
2023/06/06 06:07:49;;;;;;;13.33;9.00;;;17.00;99.90;;;;;;6011899;23;20737;-66
2023/06/06 06:10:16;;;;;;;18.10;10.47;;;17.20;99.90;;;;;;6011754;23;20414;-66
2023/06/06 06:12:46;;;;;;;18.90;9.90;;;17.30;99.90;;;;;;6011201;23;20418;-66
2023/06/06 06:15:13;;;;;;;15.17;8.70;;;17.60;99.90;;;;;;6011848;23;20418;-66
2023/06/06 06:17:40;;;;;;;17.80;9.23;;;17.40;99.90;;;;;;6012035;23;20418;-66
2023/06/06 06:20:10;;;;;;;15.37;9.00;;;17.40;99.90;;;;;;6011586;23;20446;-67
2023/06/06 06:22:37;;;;;;;14.70;9.17;;;17.40;99.90;;;;;;6011531;23;20780;-66
2023/06/06 06:25:04;;;;;;;12.90;7.90;;;17.60;99.90;;;;;;6011779;23;20425;-66
2023/06/06 06:27:31;;;;;;;14.37;9.67;;;17.70;99.90;;;;;;6011587;23;20418;-66
2023/06/06 06:30:01;;;;;;;20.10;8.73;;;17.90;99.90;;;;;;6012088;23;20415;-66
2023/06/06 06:32:28;;;;;;;17.43;9.47;;;18.10;99.90;;;;;;6011179;23;20934;-66
2023/06/06 06:34:55;;;;;;;14.40;8.10;;;18.40;99.90;;;;;;6011868;23;20493;-66
2023/06/06 06:37:22;;;;;;;12.77;8.43;;;18.70;97.00;;;;;;6011827;23;20423;-66
2023/06/06 06:39:49;;;;;;;16.97;9.97;;;18.40;96.20;;;;;;6010447;23;20446;-66
2023/06/06 06:42:15;;;;;;;15.90;9.33;;;18.50;96.10;;;;;;6010983;23;20495;-66
2023/06/06 06:44:42;;;;;;;17.80;8.10;;;18.70;96.40;;;;;;6011571;23;20429;-66
2023/06/06 06:47:10;;;;;;;15.47;9.30;;;19.00;96.40;;;;;;6011558;23;20921;-67
2023/06/06 06:49:39;;;;;;;14.47;9.43;;;19.20;94.80;;;;;;6011890;23;20425;-67
2023/06/06 06:52:07;;;;;;;14.33;9.70;;;19.00;94.10;;;;;;6011409;23;20418;-66
2023/06/06 06:54:35;;;;;;;14.27;9.27;;;19.20;93.50;;;;;;6011468;23;20418;-67
2023/06/06 06:57:02;;;;;;;18.47;10.53;;;19.30;92.50;;;;;;6011325;23;20446;-66
2023/06/06 06:59:29;;;;;;;16.90;9.30;;;19.40;92.60;;;;;;6011815;23;20453;-66
2023/06/06 07:01:56;;;;;;;14.40;8.77;;;19.50;94.10;;;;;;6011788;23;20426;-67
2023/06/06 07:04:24;;;;;;;18.30;10.37;;;19.40;91.40;;;;;;6011751;23;20419;-67
2023/06/06 07:06:51;;;;;;;13.53;8.17;;;19.40;92.00;;;;;;6008782;23;20425;-68
2023/06/06 07:09:20;;;;;;;17.63;9.50;;;19.20;91.30;;;;;;6009467;23;20506;-67
2023/06/06 07:11:47;;;;;;;19.00;10.40;;;19.30;91.40;;;;;;6010871;23;20433;-67
2023/06/06 07:14:13;;;;;;;15.40;9.73;;;19.30;91.40;;;;;;6009471;23;20426;-67
2023/06/06 07:16:41;;;;;;;20.40;10.47;;;19.50;91.90;;;;;;6009790;23;20430;-67
2023/06/06 07:19:08;;;;;;;18.30;9.10;;;19.40;91.00;;;;;;6011054;23;20970;-68
2023/06/06 07:21:37;;;;;;;18.30;10.00;;;19.60;90.40;;;;;;6011937;23;20418;-68
2023/06/06 07:24:04;;;;;;;17.80;10.03;;;19.80;90.30;;;;;;6011165;23;20423;-69
2023/06/06 07:26:30;;;;;;;17.33;9.23;;;19.70;88.50;;;;;;6010927;23;20419;-69
2023/06/06 07:28:57;;;;;;;14.50;8.77;;;19.60;86.40;;;;;;6011575;23;20426;-69
2023/06/06 07:31:25;;;;;;;14.60;10.10;;;19.80;85.90;;;;;;6011681;23;20418;-69
2023/06/06 07:33:52;;;;;;;16.23;8.37;;;19.70;85.80;;;;;;6010764;23;20425;-69
2023/06/06 07:36:19;;;;;;;20.90;8.63;;;20.00;83.70;;;;;;6011531;23;20418;-70
2023/06/06 07:38:47;;;;;;;17.23;9.03;;;20.10;86.20;;;;;;6011029;23;20475;-69
2023/06/06 07:41:14;;;;;;;15.40;9.37;;;20.10;86.20;;;;;;6011498;23;20437;-68
2023/06/06 07:43:42;;;;;;;19.93;9.40;;;20.40;86.40;;;;;;6011233;23;20410;-68
2023/06/06 07:46:09;;;;;;;16.40;9.33;;;20.60;81.90;;;;;;6011741;23;20415;-69
2023/06/06 07:48:36;;;;;;;14.23;9.13;;;20.60;76.10;;;;;;6011249;23;20414;-69
2023/06/06 07:51:03;;;;;;;14.80;8.87;;;20.50;82.20;;;;;;6011355;23;20410;-69
2023/06/06 07:53:30;;;;;;;16.60;9.40;;;20.70;82.30;;;;;;6010964;23;20426;-68
2023/06/06 07:55:58;;;;;;;13.70;8.47;;;21.00;79.60;;;;;;6011483;23;20415;-69
2023/06/06 07:58:27;;;;;;;16.20;9.53;;;20.90;76.30;;;;;;6010754;23;20414;-69
2023/06/06 08:00:58;;;;;;;12.53;8.27;;;21.10;76.80;;;;;;6011374;23;20541;-69
2023/06/06 08:03:25;;;;;;;12.73;7.90;;;21.30;76.00;;;;;;6010729;23;20402;-69
2023/06/06 08:05:51;;;;;;;16.97;8.63;;;21.10;75.60;;;;;;6011203;23;20430;-69
2023/06/06 08:08:18;;;;;;;11.60;7.60;;;21.30;75.90;;;;;;6010803;23;20926;-69
2023/06/06 08:10:45;;;;;;;17.23;9.10;;;21.20;75.30;;;;;;6011011;23;20919;-69
2023/06/06 08:13:14;;;;;;;14.57;9.00;;;21.30;75.40;;;;;;6010768;23;20419;-69
2023/06/06 08:15:41;;;;;;;17.17;9.73;;;21.90;74.40;;;;;;6010963;23;20421;-69
2023/06/06 08:18:07;;;;;;;15.33;9.10;;;21.60;73.70;;;;;;6010932;23;20430;-67
2023/06/06 08:20:34;;;;;;;13.33;7.30;;;21.50;71.50;;;;;;6010564;23;20450;-67
2023/06/06 08:23:01;;;;;;;16.90;9.07;;;21.70;70.10;;;;;;6009804;23;20425;-67
2023/06/06 08:25:28;;;;;;;17.47;10.20;;;21.70;71.60;;;;;;6009041;23;20418;-67
2023/06/06 08:27:55;;;;;;;13.57;7.33;;;21.70;73.80;;;;;;6009684;23;20917;-66
2023/06/06 08:30:23;;;;;;;13.33;7.83;;;21.80;71.70;;;;;;5958608;23;20485;-68
2023/06/06 08:32:50;;;;;;;14.57;8.53;;;21.70;71.60;;;;;;5953333;24;20779;-65
2023/06/06 08:35:18;;;;;;;13.67;8.83;;;22.00;65.50;;;;;;5953634;24;20427;-67
2023/06/06 08:37:45;;;;;;;13.80;7.67;;;21.90;63.60;;;;;;5954347;24;20428;-67
2023/06/06 08:40:13;;;;;;;17.13;8.70;;;22.00;66.70;;;;;;5955229;24;20441;-66
2023/06/06 08:42:44;;;;;;;13.03;7.77;;;22.20;63.80;;;;;;5973726;24;20428;-66
2023/06/06 08:45:11;;;;;;;13.20;9.40;;;22.40;64.10;;;;;;5983338;24;20436;-67
2023/06/06 08:47:43;;;;;;;14.67;7.60;;;22.10;60.00;;;;;;5982601;24;20455;-67
2023/06/06 08:50:10;;;;;;;13.70;8.00;;;22.30;57.40;;;;;;5982825;24;20404;-66
2023/06/06 08:52:40;;;;;;;13.83;7.73;;;22.10;57.50;;;;;;5982466;24;20423;-67
2023/06/06 08:55:08;;;;;;;12.37;8.43;;;22.50;61.50;;;;;;5982730;24;20900;-66
2023/06/06 08:57:41;;;;;;;13.47;7.90;;;22.60;60.20;;;;;;5982410;24;20423;-67
2023/06/06 09:00:11;;;;;;;14.63;8.23;;;22.60;55.70;;;;;;5982817;24;20428;-66
2023/06/06 09:02:41;;;;;;;12.67;8.00;;;22.70;57.60;;;;;;5982446;24;20458;-66
2023/06/06 09:05:10;;;;;;;14.03;9.23;;;22.90;56.00;;;;;;5982883;24;20448;-65
2023/06/06 09:07:38;;;;;;;16.97;9.47;;;23.00;56.00;;;;;;5982609;24;20423;-67
2023/06/06 09:10:07;;;;;;;12.80;8.70;;;23.10;56.10;;;;;;5982710;24;20498;-67
2023/06/06 09:12:41;;;;;;;17.73;9.40;;;22.90;55.90;;;;;;5982532;24;20426;-67
2023/06/06 09:15:10;;;;;;;16.70;9.17;;;22.90;55.90;;;;;;5982875;24;20404;-67
2023/06/06 09:17:37;;;;;;;14.83;9.00;;;23.00;56.00;;;;;;5982554;24;20431;-67
2023/06/06 09:20:08;;;;;;;19.27;9.77;;;23.10;57.20;;;;;;5982152;24;20443;-67
2023/06/06 09:22:39;;;;;;;18.93;10.17;;;23.20;52.40;;;;;;5982406;24;20436;-67
2023/06/06 09:25:13;;;;;;;22.20;10.57;;;23.40;55.20;;;;;;5983052;24;20424;-66
2023/06/06 09:27:40;;;;;;;21.23;9.67;;;24.00;48.10;;;;;;5982594;24;20743;-67
2023/06/06 09:30:20;;;;;;;24.53;10.00;;;24.00;52.20;;;;;;5982811;24;20422;-67
2023/06/06 09:32:51;;;;;;;20.33;10.00;;;23.70;47.80;;;;;;5982112;24;20408;-67
2023/06/06 09:35:19;;;;;;;29.30;10.63;;;23.40;50.00;;;;;;5983043;24;20989;-67
2023/06/06 09:37:47;;;;;;;23.50;9.83;;;23.50;46.40;;;;;;5981781;24;20488;-67
2023/06/06 09:40:15;;;;;;;17.67;10.60;;;23.70;50.30;;;;;;5981919;24;20439;-68
2023/06/06 09:42:43;;;;;;;24.10;8.50;;;23.70;47.80;;;;;;5981585;24;20427;-68
2023/06/06 09:45:17;;;;;;;21.20;9.30;;;23.80;43.00;;;;;;5982305;24;20405;-68
2023/06/06 09:47:45;;;;;;;19.27;10.10;;;24.00;49.10;;;;;;5982011;24;20434;-68
2023/06/06 09:50:13;;;;;;;15.20;9.50;;;24.00;43.80;;;;;;5982529;24;20415;-68
2023/06/06 09:52:42;;;;;;;14.30;7.30;;;24.30;43.10;;;;;;5982071;24;20430;-68
2023/06/06 09:55:11;;;;;;;14.77;8.40;;;24.30;41.70;;;;;;5982213;24;20420;-67
2023/06/06 09:57:39;;;;;;;15.80;9.37;;;24.10;39.10;;;;;;5982409;24;20420;-67
2023/06/06 10:00:10;;;;;;;16.90;9.00;;;24.30;42.90;;;;;;5982268;24;20526;-66
2023/06/06 10:02:45;;;;;;;15.63;9.00;;;24.50;39.50;;;;;;5982299;24;20407;-68
2023/06/06 10:05:13;;;;;;;17.20;9.30;;;24.30;39.30;;;;;;5982638;24;20410;-67
2023/06/06 10:07:44;;;;;;;19.17;9.50;;;24.80;44.20;;;;;;5982143;24;20629;-68
2023/06/06 10:10:12;;;;;;;17.90;8.30;;;24.30;36.70;;;;;;5982323;24;20408;-67
2023/06/06 10:12:40;;;;;;;22.00;9.30;;;24.30;34.60;;;;;;5981264;24;20419;-65
2023/06/06 10:15:10;;;;;;;20.53;10.70;;;24.70;39.70;;;;;;5982120;24;20531;-65
2023/06/06 10:17:38;;;;;;;23.47;12.00;;;24.80;30.90;;;;;;5982002;24;20901;-64
2023/06/06 10:20:07;;;;;;;18.03;8.87;;;25.30;30.90;;;;;;5982574;24;20496;-65
2023/06/06 10:22:35;;;;;;;14.23;8.70;;;25.40;31.00;;;;;;5982168;24;20751;-65
2023/06/06 10:25:07;;;;;;;16.00;8.00;;;25.10;32.80;;;;;;5982562;24;20479;-66
2023/06/06 10:27:47;;;;;;;16.13;8.00;;;25.30;27.60;;;;;;5982025;24;20440;-67
2023/06/06 10:30:25;;;;;;;14.77;8.60;;;25.30;25.50;;;;;;5982418;24;20877;-66
2023/06/06 10:33:02;;;;;;;15.83;9.30;;;25.60;23.60;;;;;;5982083;24;20404;-65
2023/06/06 10:35:30;;;;;;;15.80;7.87;;;25.70;28.20;;;;;;5982522;24;20490;-65
2023/06/06 10:38:04;;;;;;;22.53;10.40;;;25.70;30.40;;;;;;5982281;24;20735;-66
2023/06/06 10:40:51;;;;;;;14.80;9.30;;;25.70;23.70;;;;;;5982445;24;20438;-65
2023/06/06 10:43:20;;;;;;;14.70;6.70;;;26.20;29.90;;;;;;5981845;24;20432;-66
2023/06/06 10:45:50;;;;;;;13.40;7.00;;;26.10;25.90;;;;;;5983942;24;20428;-66
2023/06/06 10:48:17;;;;;;;17.00;8.80;;;26.00;21.40;;;;;;5983876;24;20405;-65
2023/06/06 10:50:54;;;;;;;16.97;9.37;;;26.00;23.80;;;;;;5984011;24;21070;-66
2023/06/06 10:53:21;;;;;;;20.90;9.37;;;26.20;25.20;;;;;;5983535;24;20463;-66
2023/06/06 10:55:49;;;;;;;14.77;9.13;;;26.20;24.70;;;;;;5983855;24;20435;-65
2023/06/06 10:58:23;;;;;;;13.53;8.50;;;26.10;26.70;;;;;;5983641;24;20420;-66
2023/06/06 11:00:51;;;;;;;16.50;8.50;;;26.10;23.50;;;;;;5984157;24;20480;-66
2023/06/06 11:03:34;;;;;;;21.43;8.80;;;26.50;19.80;;;;;;5983590;24;20736;-65
2023/06/06 11:06:16;;;;;;;17.83;8.93;;;27.00;16.40;;;;;;5983827;24;20426;-65
2023/06/06 11:08:49;;;;;;;13.60;6.97;;;27.40;15.50;;;;;;5983358;24;20419;-65
2023/06/06 11:11:29;;;;;;;21.27;7.73;;;27.60;14.80;;;;;;5984287;24;20486;-65
2023/06/06 11:13:58;;;;;;;14.40;8.20;;;27.30;17.00;;;;;;5983404;24;20437;-66
2023/06/06 11:16:44;;;;;;;16.73;7.17;;;27.30;17.00;;;;;;5983997;24;20431;-66
2023/06/06 11:19:14;;;;;;;12.93;6.17;;;27.50;14.20;;;;;;5960377;24;20427;-66
2023/06/06 11:21:42;;;;;;;14.23;7.23;;;27.80;17.30;;;;;;5983924;24;20781;-66
2023/06/06 11:24:10;;;;;;;11.93;6.27;;;27.70;18.00;;;;;;5983394;24;20506;-66
2023/06/06 11:26:40;;;;;;;16.60;7.90;;;27.90;7.10;;;;;;5981594;24;20745;-66
2023/06/06 11:29:07;;;;;;;11.53;6.30;;;28.00;8.80;;;;;;5981756;24;20430;-66
2023/06/06 11:31:36;;;;;;;13.57;5.43;;;28.00;12.00;;;;;;5983695;24;20450;-66
2023/06/06 11:34:06;;;;;;;12.70;6.37;;;27.60;9.90;;;;;;5982961;24;20789;-66
2023/06/06 11:36:34;;;;;;;13.40;6.80;;;27.70;11.80;;;;;;5983665;24;20420;-66
2023/06/06 11:39:03;;;;;;;11.57;6.33;;;27.40;9.40;;;;;;5983374;24;20431;-66
2023/06/06 11:41:30;;;;;;;13.87;6.53;;;28.00;9.80;;;;;;5983284;24;20450;-66
2023/06/06 11:43:58;;;;;;;12.10;6.17;;;28.00;8.10;;;;;;5983314;24;20385;-66
2023/06/06 11:46:25;;;;;;;11.60;6.30;;;28.20;9.90;;;;;;5981007;24;20419;-66
2023/06/06 11:48:57;;;;;;;10.87;6.03;;;27.70;7.60;;;;;;5981767;24;20426;-66
2023/06/06 11:51:24;;;;;;;13.63;6.60;;;28.00;8.90;;;;;;5982491;24;20400;-66
2023/06/06 11:53:50;;;;;;;14.23;4.93;;;28.20;6.10;;;;;;5982005;24;20402;-66
2023/06/06 11:56:19;;;;;;;11.03;3.80;;;28.10;1.90;;;;;;5983607;24;20401;-66
2023/06/06 11:58:46;;;;;;;15.03;4.97;;;28.50;1.60;;;;;;5983272;24;20420;-66
2023/06/06 12:01:15;;;;;;;11.03;4.70;;;28.60;1.00;;;;;;5983390;24;20446;-65
2023/06/06 12:03:43;;;;;;;10.80;5.17;;;29.70;1.00;;;;;;5982939;24;20401;-65
2023/06/06 12:06:10;;;;;;;9.53;4.73;;;29.40;1.00;;;;;;5983248;24;20905;-65
2023/06/06 12:08:38;;;;;;;9.50;4.60;;;28.90;1.00;;;;;;5982813;24;20430;-65
2023/06/06 12:11:21;;;;;;;9.77;4.37;;;28.60;1.00;;;;;;5983510;24;20397;-65
2023/06/06 12:13:48;;;;;;;11.43;4.80;;;28.10;1.30;;;;;;5982545;24;20394;-65
2023/06/06 12:16:21;;;;;;;8.60;3.87;;;28.70;1.00;;;;;;5983318;24;20420;-65
2023/06/06 12:18:48;;;;;;;12.50;4.13;;;29.30;1.00;;;;;;5983347;24;20403;-65
2023/06/06 12:21:16;;;;;;;9.27;5.00;;;30.30;1.00;;;;;;5983013;24;20978;-65
2023/06/06 12:23:43;;;;;;;12.20;4.77;;;30.00;1.00;;;;;;5982792;24;20425;-65
2023/06/06 12:26:12;;;;;;;6.60;3.47;;;29.60;1.00;;;;;;5983256;24;20423;-66
2023/06/06 12:28:54;;;;;;;13.57;4.70;;;29.40;1.00;;;;;;5982725;24;20475;-65